sensor_id;sensor_type;location;lat;lon;timestamp;P1;durP1;ratioP1;P2;durP2;ratioP2
57105;SDS011;62662;56.788;23.942;2022-09-27T00:01:06;8.25;;;6.47;;
57105;SDS011;62662;56.788;23.942;2022-09-27T00:03:35;7.45;;;5.88;;
57105;SDS011;62662;56.788;23.942;2022-09-27T00:06:04;8.05;;;6.68;;
57105;SDS011;62662;56.788;23.942;2022-09-27T00:08:44;8.52;;;6.63;;
57105;SDS011;62662;56.788;23.942;2022-09-27T00:11:14;7.72;;;6.40;;
57105;SDS011;62662;56.788;23.942;2022-09-27T00:13:48;7.18;;;6.47;;
57105;SDS011;62662;56.788;23.942;2022-09-27T00:16:15;8.02;;;6.35;;
57105;SDS011;62662;56.788;23.942;2022-09-27T00:18:42;8.90;;;7.10;;
57105;SDS011;62662;56.788;23.942;2022-09-27T00:21:10;8.25;;;6.40;;
57105;SDS011;62662;56.788;23.942;2022-09-27T00:23:39;7.93;;;6.82;;
57105;SDS011;62662;56.788;23.942;2022-09-27T00:26:06;10.50;;;6.07;;
57105;SDS011;62662;56.788;23.942;2022-09-27T00:28:35;7.55;;;6.72;;
57105;SDS011;62662;56.788;23.942;2022-09-27T00:31:03;11.48;;;6.95;;
57105;SDS011;62662;56.788;23.942;2022-09-27T00:33:36;7.88;;;6.60;;
57105;SDS011;62662;56.788;23.942;2022-09-27T00:36:04;7.90;;;6.15;;
57105;SDS011;62662;56.788;23.942;2022-09-27T00:38:31;7.88;;;7.07;;
57105;SDS011;62662;56.788;23.942;2022-09-27T00:40:58;8.20;;;7.32;;
57105;SDS011;62662;56.788;23.942;2022-09-27T00:43:25;9.35;;;7.38;;
57105;SDS011;62662;56.788;23.942;2022-09-27T00:46:07;8.48;;;6.90;;
57105;SDS011;62662;56.788;23.942;2022-09-27T00:48:35;7.88;;;7.07;;
57105;SDS011;62662;56.788;23.942;2022-09-27T00:51:03;8.15;;;7.35;;
57105;SDS011;62662;56.788;23.942;2022-09-27T00:53:37;12.32;;;7.60;;
57105;SDS011;62662;56.788;23.942;2022-09-27T00:56:13;8.43;;;6.53;;
57105;SDS011;62662;56.788;23.942;2022-09-27T00:58:47;7.40;;;6.47;;
57105;SDS011;62662;56.788;23.942;2022-09-27T01:06:50;7.50;;;6.70;;
57105;SDS011;62662;56.788;23.942;2022-09-27T01:09:17;9.45;;;6.85;;
57105;SDS011;62662;56.788;23.942;2022-09-27T01:11:47;7.88;;;6.45;;
57105;SDS011;62662;56.788;23.942;2022-09-27T01:14:31;8.75;;;6.93;;
57105;SDS011;62662;56.788;23.942;2022-09-27T01:28:11;7.80;;;6.22;;
57105;SDS011;62662;56.788;23.942;2022-09-27T01:41:49;7.70;;;6.18;;
57105;SDS011;62662;56.788;23.942;2022-09-27T01:44:31;9.50;;;6.38;;
57105;SDS011;62662;56.788;23.942;2022-09-27T01:47:14;8.88;;;6.00;;
57105;SDS011;62662;56.788;23.942;2022-09-27T01:49:46;6.75;;;6.03;;
57105;SDS011;62662;56.788;23.942;2022-09-27T01:52:26;6.38;;;5.38;;
57105;SDS011;62662;56.788;23.942;2022-09-27T01:55:17;7.30;;;6.60;;
57105;SDS011;62662;56.788;23.942;2022-09-27T01:57:58;9.07;;;6.18;;
57105;SDS011;62662;56.788;23.942;2022-09-27T02:00:39;8.52;;;6.45;;
57105;SDS011;62662;56.788;23.942;2022-09-27T02:03:11;8.90;;;6.22;;
57105;SDS011;62662;56.788;23.942;2022-09-27T02:05:45;7.53;;;6.53;;
57105;SDS011;62662;56.788;23.942;2022-09-27T02:11:02;9.90;;;6.50;;
57105;SDS011;62662;56.788;23.942;2022-09-27T02:13:45;12.05;;;7.03;;
57105;SDS011;62662;56.788;23.942;2022-09-27T02:19:12;7.95;;;7.00;;
57105;SDS011;62662;56.788;23.942;2022-09-27T02:27:21;10.23;;;7.07;;
57105;SDS011;62662;56.788;23.942;2022-09-27T02:29:54;8.45;;;6.05;;
57105;SDS011;62662;56.788;23.942;2022-09-27T02:32:29;7.65;;;6.35;;
57105;SDS011;62662;56.788;23.942;2022-09-27T02:34:58;8.55;;;6.75;;
57105;SDS011;62662;56.788;23.942;2022-09-27T02:37:29;10.48;;;6.97;;
57105;SDS011;62662;56.788;23.942;2022-09-27T02:39:57;11.88;;;7.03;;
57105;SDS011;62662;56.788;23.942;2022-09-27T02:42:24;10.55;;;6.97;;
57105;SDS011;62662;56.788;23.942;2022-09-27T02:44:51;10.50;;;7.55;;
57105;SDS011;62662;56.788;23.942;2022-09-27T03:07:16;12.40;;;7.78;;
57105;SDS011;62662;56.788;23.942;2022-09-27T03:09:45;10.32;;;7.60;;
57105;SDS011;62662;56.788;23.942;2022-09-27T03:12:13;10.95;;;7.95;;
57105;SDS011;62662;56.788;23.942;2022-09-27T03:14:46;9.32;;;7.72;;
57105;SDS011;62662;56.788;23.942;2022-09-27T03:17:13;9.52;;;7.32;;
57105;SDS011;62662;56.788;23.942;2022-09-27T03:19:40;8.75;;;7.45;;
57105;SDS011;62662;56.788;23.942;2022-09-27T03:22:07;9.35;;;7.78;;
57105;SDS011;62662;56.788;23.942;2022-09-27T03:24:34;12.38;;;7.15;;
57105;SDS011;62662;56.788;23.942;2022-09-27T03:27:02;9.45;;;6.88;;
57105;SDS011;62662;56.788;23.942;2022-09-27T03:29:29;11.40;;;7.57;;
57105;SDS011;62662;56.788;23.942;2022-09-27T03:31:56;10.73;;;7.55;;
57105;SDS011;62662;56.788;23.942;2022-09-27T03:34:23;7.20;;;6.45;;
57105;SDS011;62662;56.788;23.942;2022-09-27T03:36:50;10.05;;;7.43;;
57105;SDS011;62662;56.788;23.942;2022-09-27T03:39:20;9.40;;;8.05;;
57105;SDS011;62662;56.788;23.942;2022-09-27T03:41:47;10.25;;;8.02;;
57105;SDS011;62662;56.788;23.942;2022-09-27T03:44:14;9.43;;;7.43;;
57105;SDS011;62662;56.788;23.942;2022-09-27T03:46:41;10.68;;;8.35;;
57105;SDS011;62662;56.788;23.942;2022-09-27T03:49:08;10.93;;;8.35;;
57105;SDS011;62662;56.788;23.942;2022-09-27T03:51:35;10.90;;;8.23;;
57105;SDS011;62662;56.788;23.942;2022-09-27T03:54:02;12.50;;;8.82;;
57105;SDS011;62662;56.788;23.942;2022-09-27T03:56:29;12.25;;;9.25;;
57105;SDS011;62662;56.788;23.942;2022-09-27T03:58:57;9.98;;;8.40;;
57105;SDS011;62662;56.788;23.942;2022-09-27T04:01:24;10.25;;;8.18;;
57105;SDS011;62662;56.788;23.942;2022-09-27T04:03:52;12.85;;;8.23;;
57105;SDS011;62662;56.788;23.942;2022-09-27T04:06:19;11.32;;;7.90;;
57105;SDS011;62662;56.788;23.942;2022-09-27T04:08:48;9.18;;;8.27;;
57105;SDS011;62662;56.788;23.942;2022-09-27T04:11:16;13.05;;;8.50;;
57105;SDS011;62662;56.788;23.942;2022-09-27T04:13:43;14.50;;;8.10;;
57105;SDS011;62662;56.788;23.942;2022-09-27T04:16:10;13.40;;;8.18;;
57105;SDS011;62662;56.788;23.942;2022-09-27T04:18:37;9.30;;;8.23;;
57105;SDS011;62662;56.788;23.942;2022-09-27T04:21:04;12.13;;;8.25;;
57105;SDS011;62662;56.788;23.942;2022-09-27T04:23:31;9.50;;;8.15;;
57105;SDS011;62662;56.788;23.942;2022-09-27T04:25:59;11.55;;;8.55;;
57105;SDS011;62662;56.788;23.942;2022-09-27T04:28:26;11.85;;;8.38;;
57105;SDS011;62662;56.788;23.942;2022-09-27T04:30:55;10.75;;;8.73;;
57105;SDS011;62662;56.788;23.942;2022-09-27T04:33:22;11.10;;;8.95;;
57105;SDS011;62662;56.788;23.942;2022-09-27T04:35:50;10.02;;;7.82;;
57105;SDS011;62662;56.788;23.942;2022-09-27T04:38:36;10.98;;;8.65;;
57105;SDS011;62662;56.788;23.942;2022-09-27T04:41:07;13.57;;;8.95;;
57105;SDS011;62662;56.788;23.942;2022-09-27T04:43:34;12.73;;;8.45;;
57105;SDS011;62662;56.788;23.942;2022-09-27T04:46:02;14.02;;;9.25;;
57105;SDS011;62662;56.788;23.942;2022-09-27T04:48:30;11.18;;;8.95;;
57105;SDS011;62662;56.788;23.942;2022-09-27T04:54:42;11.25;;;9.30;;
57105;SDS011;62662;56.788;23.942;2022-09-27T04:57:31;10.60;;;9.50;;
57105;SDS011;62662;56.788;23.942;2022-09-27T05:03:12;9.40;;;8.43;;
57105;SDS011;62662;56.788;23.942;2022-09-27T05:06:00;11.93;;;8.43;;
57105;SDS011;62662;56.788;23.942;2022-09-27T05:08:47;10.45;;;8.80;;
57105;SDS011;62662;56.788;23.942;2022-09-27T05:11:19;11.73;;;8.00;;
57105;SDS011;62662;56.788;23.942;2022-09-27T05:13:47;14.50;;;8.77;;
57105;SDS011;62662;56.788;23.942;2022-09-27T05:16:20;13.35;;;9.25;;
57105;SDS011;62662;56.788;23.942;2022-09-27T05:22:13;12.35;;;8.98;;
57105;SDS011;62662;56.788;23.942;2022-09-27T05:24:50;11.82;;;9.02;;
57105;SDS011;62662;56.788;23.942;2022-09-27T05:27:32;15.63;;;8.52;;
57105;SDS011;62662;56.788;23.942;2022-09-27T05:30:05;10.48;;;8.15;;
57105;SDS011;62662;56.788;23.942;2022-09-27T05:32:38;11.25;;;8.57;;
57105;SDS011;62662;56.788;23.942;2022-09-27T05:35:24;10.95;;;7.85;;
57105;SDS011;62662;56.788;23.942;2022-09-27T05:38:23;9.80;;;8.05;;
57105;SDS011;62662;56.788;23.942;2022-09-27T05:41:46;11.40;;;8.35;;
57105;SDS011;62662;56.788;23.942;2022-09-27T06:01:08;9.27;;;7.40;;
57105;SDS011;62662;56.788;23.942;2022-09-27T06:03:45;8.68;;;7.25;;
57105;SDS011;62662;56.788;23.942;2022-09-27T06:06:35;7.80;;;6.63;;
57105;SDS011;62662;56.788;23.942;2022-09-27T06:13:11;10.02;;;6.68;;
57105;SDS011;62662;56.788;23.942;2022-09-27T06:16:01;8.90;;;7.25;;
57105;SDS011;62662;56.788;23.942;2022-09-27T06:18:44;9.18;;;8.25;;
57105;SDS011;62662;56.788;23.942;2022-09-27T06:21:43;11.43;;;7.28;;
57105;SDS011;62662;56.788;23.942;2022-09-27T06:24:11;10.43;;;7.90;;
57105;SDS011;62662;56.788;23.942;2022-09-27T06:26:44;9.50;;;7.28;;
57105;SDS011;62662;56.788;23.942;2022-09-27T06:29:14;8.38;;;7.20;;
57105;SDS011;62662;56.788;23.942;2022-09-27T06:31:48;8.20;;;6.85;;
57105;SDS011;62662;56.788;23.942;2022-09-27T06:34:15;7.03;;;5.43;;
57105;SDS011;62662;56.788;23.942;2022-09-27T06:36:43;7.45;;;5.88;;
57105;SDS011;62662;56.788;23.942;2022-09-27T06:39:23;7.53;;;5.43;;
57105;SDS011;62662;56.788;23.942;2022-09-27T06:41:59;11.25;;;6.15;;
57105;SDS011;62662;56.788;23.942;2022-09-27T07:02:04;12.45;;;7.18;;
57105;SDS011;62662;56.788;23.942;2022-09-27T07:04:32;16.58;;;8.15;;
57105;SDS011;62662;56.788;23.942;2022-09-27T07:07:00;12.45;;;7.70;;
57105;SDS011;62662;56.788;23.942;2022-09-27T07:09:33;13.82;;;7.07;;
57105;SDS011;62662;56.788;23.942;2022-09-27T07:12:05;11.52;;;6.70;;
57105;SDS011;62662;56.788;23.942;2022-09-27T07:14:44;10.45;;;6.65;;
57105;SDS011;62662;56.788;23.942;2022-09-27T07:21:18;9.65;;;6.50;;
57105;SDS011;62662;56.788;23.942;2022-09-27T07:27:36;8.57;;;6.25;;
57105;SDS011;62662;56.788;23.942;2022-09-27T07:44:38;11.02;;;6.90;;
57105;SDS011;62662;56.788;23.942;2022-09-27T07:56:05;10.25;;;7.13;;
57105;SDS011;62662;56.788;23.942;2022-09-27T08:07:38;7.75;;;6.93;;
57105;SDS011;62662;56.788;23.942;2022-09-27T08:10:33;8.95;;;7.10;;
57105;SDS011;62662;56.788;23.942;2022-09-27T08:17:04;7.85;;;6.72;;
57105;SDS011;62662;56.788;23.942;2022-09-27T08:27:24;8.45;;;6.65;;
57105;SDS011;62662;56.788;23.942;2022-09-27T08:30:18;6.63;;;5.75;;
57105;SDS011;62662;56.788;23.942;2022-09-27T08:33:19;7.70;;;6.90;;
57105;SDS011;62662;56.788;23.942;2022-09-27T09:49:53;9.93;;;7.38;;
57105;SDS011;62662;56.788;23.942;2022-09-27T10:00:24;9.68;;;6.88;;
57105;SDS011;62662;56.788;23.942;2022-09-27T10:03:14;8.13;;;7.22;;
57105;SDS011;62662;56.788;23.942;2022-09-27T10:06:40;8.80;;;7.68;;
57105;SDS011;62662;56.788;23.942;2022-09-27T10:13:04;10.60;;;9.50;;
57105;SDS011;62662;56.788;23.942;2022-09-27T10:16:46;10.85;;;8.10;;
57105;SDS011;62662;56.788;23.942;2022-09-27T10:43:48;9.45;;;6.05;;
57105;SDS011;62662;56.788;23.942;2022-09-27T10:49:33;8.50;;;6.68;;
57105;SDS011;62662;56.788;23.942;2022-09-27T11:51:10;6.00;;;5.40;;
57105;SDS011;62662;56.788;23.942;2022-09-27T11:54:03;7.93;;;6.60;;
57105;SDS011;62662;56.788;23.942;2022-09-27T12:00:02;9.25;;;7.63;;
57105;SDS011;62662;56.788;23.942;2022-09-27T12:06:24;8.15;;;7.28;;
57105;SDS011;62662;56.788;23.942;2022-09-27T12:09:21;7.80;;;6.88;;
57105;SDS011;62662;56.788;23.942;2022-09-27T12:12:09;8.40;;;7.30;;
57105;SDS011;62662;56.788;23.942;2022-09-27T12:15:28;8.75;;;7.47;;
57105;SDS011;62662;56.788;23.942;2022-09-27T12:21:31;8.60;;;7.65;;
57105;SDS011;62662;56.788;23.942;2022-09-27T12:24:01;8.73;;;7.72;;
57105;SDS011;62662;56.788;23.942;2022-09-27T12:26:33;9.52;;;7.40;;
57105;SDS011;62662;56.788;23.942;2022-09-27T12:31:46;10.85;;;6.90;;
57105;SDS011;62662;56.788;23.942;2022-09-27T12:34:27;8.23;;;6.57;;
57105;SDS011;62662;56.788;23.942;2022-09-27T12:39:48;7.63;;;6.82;;
57105;SDS011;62662;56.788;23.942;2022-09-27T12:42:25;8.05;;;6.90;;
57105;SDS011;62662;56.788;23.942;2022-09-27T12:45:16;7.70;;;6.90;;
57105;SDS011;62662;56.788;23.942;2022-09-27T12:53:27;10.88;;;7.50;;
57105;SDS011;62662;56.788;23.942;2022-09-27T13:01:38;8.85;;;7.95;;
57105;SDS011;62662;56.788;23.942;2022-09-27T13:12:56;12.88;;;9.25;;
57105;SDS011;62662;56.788;23.942;2022-09-27T13:15:28;8.90;;;8.10;;
57105;SDS011;62662;56.788;23.942;2022-09-27T13:18:00;10.23;;;8.57;;
57105;SDS011;62662;56.788;23.942;2022-09-27T13:23:08;9.48;;;8.35;;
57105;SDS011;62662;56.788;23.942;2022-09-27T13:25:55;10.38;;;8.45;;
57105;SDS011;62662;56.788;23.942;2022-09-27T13:31:02;11.73;;;9.02;;
57105;SDS011;62662;56.788;23.942;2022-09-27T13:33:48;9.23;;;8.18;;
57105;SDS011;62662;56.788;23.942;2022-09-27T13:49:50;9.43;;;7.05;;
57105;SDS011;62662;56.788;23.942;2022-09-27T13:52:32;9.38;;;7.72;;
57105;SDS011;62662;56.788;23.942;2022-09-27T13:55:05;8.77;;;7.60;;
57105;SDS011;62662;56.788;23.942;2022-09-27T14:00:24;13.27;;;8.02;;
57105;SDS011;62662;56.788;23.942;2022-09-27T14:03:06;13.20;;;8.02;;
57105;SDS011;62662;56.788;23.942;2022-09-27T14:06:02;8.68;;;7.25;;
57105;SDS011;62662;56.788;23.942;2022-09-27T14:11:10;12.75;;;8.02;;
57105;SDS011;62662;56.788;23.942;2022-09-27T14:13:43;7.78;;;6.97;;
57105;SDS011;62662;56.788;23.942;2022-09-27T14:16:15;9.00;;;6.90;;
57105;SDS011;62662;56.788;23.942;2022-09-27T14:18:54;8.43;;;6.82;;
57105;SDS011;62662;56.788;23.942;2022-09-27T14:21:33;12.07;;;7.10;;
57105;SDS011;62662;56.788;23.942;2022-09-27T14:26:50;7.38;;;6.13;;
57105;SDS011;62662;56.788;23.942;2022-09-27T14:30:22;7.97;;;7.18;;
57105;SDS011;62662;56.788;23.942;2022-09-27T14:32:45;10.32;;;6.50;;
57105;SDS011;62662;56.788;23.942;2022-09-27T14:35:20;10.35;;;7.32;;
57105;SDS011;62662;56.788;23.942;2022-09-27T14:38:10;8.52;;;7.07;;
57105;SDS011;62662;56.788;23.942;2022-09-27T14:41:01;8.32;;;7.53;;
57105;SDS011;62662;56.788;23.942;2022-09-27T14:43:30;7.57;;;6.50;;
57105;SDS011;62662;56.788;23.942;2022-09-27T14:46:01;8.50;;;7.28;;
57105;SDS011;62662;56.788;23.942;2022-09-27T14:48:36;7.32;;;6.60;;
57105;SDS011;62662;56.788;23.942;2022-09-27T14:53:47;8.32;;;7.35;;
57105;SDS011;62662;56.788;23.942;2022-09-27T14:56:33;7.45;;;6.65;;
57105;SDS011;62662;56.788;23.942;2022-09-27T14:59:15;10.10;;;7.75;;
57105;SDS011;62662;56.788;23.942;2022-09-27T15:01:53;10.32;;;8.38;;
57105;SDS011;62662;56.788;23.942;2022-09-27T15:04:28;11.13;;;8.20;;
57105;SDS011;62662;56.788;23.942;2022-09-27T15:07:01;10.07;;;8.55;;
57105;SDS011;62662;56.788;23.942;2022-09-27T15:09:30;11.13;;;7.68;;
57105;SDS011;62662;56.788;23.942;2022-09-27T15:11:59;12.13;;;8.85;;
57105;SDS011;62662;56.788;23.942;2022-09-27T15:14:33;13.77;;;9.00;;
57105;SDS011;62662;56.788;23.942;2022-09-27T15:17:16;10.85;;;8.20;;
57105;SDS011;62662;56.788;23.942;2022-09-27T15:19:58;13.40;;;8.48;;
57105;SDS011;62662;56.788;23.942;2022-09-27T15:22:35;13.13;;;7.97;;
57105;SDS011;62662;56.788;23.942;2022-09-27T15:25:17;8.48;;;7.13;;
57105;SDS011;62662;56.788;23.942;2022-09-27T15:27:58;8.32;;;7.10;;
57105;SDS011;62662;56.788;23.942;2022-09-27T15:30:42;7.50;;;6.72;;
57105;SDS011;62662;56.788;23.942;2022-09-27T15:33:21;8.65;;;7.22;;
57105;SDS011;62662;56.788;23.942;2022-09-27T15:36:04;8.98;;;7.97;;
57105;SDS011;62662;56.788;23.942;2022-09-27T15:38:43;9.23;;;7.43;;
57105;SDS011;62662;56.788;23.942;2022-09-27T15:49:35;8.57;;;7.68;;
57105;SDS011;62662;56.788;23.942;2022-09-27T15:51:51;11.02;;;8.52;;
57105;SDS011;62662;56.788;23.942;2022-09-27T15:54:27;10.20;;;8.80;;
57105;SDS011;62662;56.788;23.942;2022-09-27T15:57:02;9.70;;;8.68;;
57105;SDS011;62662;56.788;23.942;2022-09-27T15:59:37;10.13;;;8.35;;
57105;SDS011;62662;56.788;23.942;2022-09-27T16:02:12;12.52;;;8.95;;
57105;SDS011;62662;56.788;23.942;2022-09-27T16:04:42;10.80;;;8.93;;
57105;SDS011;62662;56.788;23.942;2022-09-27T16:07:11;10.05;;;8.52;;
57105;SDS011;62662;56.788;23.942;2022-09-27T16:09:40;11.32;;;8.98;;
57105;SDS011;62662;56.788;23.942;2022-09-27T16:12:12;11.00;;;9.27;;
57105;SDS011;62662;56.788;23.942;2022-09-27T16:14:39;10.82;;;8.63;;
57105;SDS011;62662;56.788;23.942;2022-09-27T16:17:07;10.75;;;9.05;;
57105;SDS011;62662;56.788;23.942;2022-09-27T16:19:36;15.48;;;8.95;;
57105;SDS011;62662;56.788;23.942;2022-09-27T16:22:03;11.07;;;8.48;;
57105;SDS011;62662;56.788;23.942;2022-09-27T16:24:31;8.77;;;7.75;;
57105;SDS011;62662;56.788;23.942;2022-09-27T16:26:59;9.75;;;7.90;;
57105;SDS011;62662;56.788;23.942;2022-09-27T16:29:29;11.77;;;8.40;;
57105;SDS011;62662;56.788;23.942;2022-09-27T16:31:57;10.07;;;8.40;;
57105;SDS011;62662;56.788;23.942;2022-09-27T16:34:25;10.05;;;8.40;;
57105;SDS011;62662;56.788;23.942;2022-09-27T16:36:54;9.20;;;8.30;;
57105;SDS011;62662;56.788;23.942;2022-09-27T16:39:26;10.13;;;8.32;;
57105;SDS011;62662;56.788;23.942;2022-09-27T16:41:53;10.40;;;8.05;;
57105;SDS011;62662;56.788;23.942;2022-09-27T16:44:22;10.38;;;8.68;;
57105;SDS011;62662;56.788;23.942;2022-09-27T16:46:52;9.43;;;8.27;;
57105;SDS011;62662;56.788;23.942;2022-09-27T16:49:20;11.40;;;8.50;;
57105;SDS011;62662;56.788;23.942;2022-09-27T16:52:06;13.73;;;9.38;;
57105;SDS011;62662;56.788;23.942;2022-09-27T16:54:36;9.23;;;8.13;;
57105;SDS011;62662;56.788;23.942;2022-09-27T16:57:04;9.48;;;8.48;;
57105;SDS011;62662;56.788;23.942;2022-09-27T16:59:33;9.57;;;8.40;;
57105;SDS011;62662;56.788;23.942;2022-09-27T17:02:01;12.57;;;9.20;;
57105;SDS011;62662;56.788;23.942;2022-09-27T17:04:31;14.27;;;8.18;;
57105;SDS011;62662;56.788;23.942;2022-09-27T17:07:03;10.45;;;8.27;;
57105;SDS011;62662;56.788;23.942;2022-09-27T17:09:31;9.43;;;8.13;;
57105;SDS011;62662;56.788;23.942;2022-09-27T17:11:59;11.38;;;9.27;;
57105;SDS011;62662;56.788;23.942;2022-09-27T17:14:37;10.40;;;8.32;;
57105;SDS011;62662;56.788;23.942;2022-09-27T17:17:04;10.77;;;8.40;;
57105;SDS011;62662;56.788;23.942;2022-09-27T17:19:32;8.57;;;7.68;;
57105;SDS011;62662;56.788;23.942;2022-09-27T17:22:01;9.85;;;8.82;;
57105;SDS011;62662;56.788;23.942;2022-09-27T17:24:39;11.18;;;8.23;;
57105;SDS011;62662;56.788;23.942;2022-09-27T17:27:07;11.70;;;7.60;;
57105;SDS011;62662;56.788;23.942;2022-09-27T17:29:35;9.98;;;8.48;;
57105;SDS011;62662;56.788;23.942;2022-09-27T17:32:04;9.68;;;8.13;;
57105;SDS011;62662;56.788;23.942;2022-09-27T17:34:34;12.93;;;8.73;;
57105;SDS011;62662;56.788;23.942;2022-09-27T17:37:09;10.27;;;8.40;;
57105;SDS011;62662;56.788;23.942;2022-09-27T17:39:37;10.85;;;8.52;;
57105;SDS011;62662;56.788;23.942;2022-09-27T17:42:06;9.90;;;8.02;;
57105;SDS011;62662;56.788;23.942;2022-09-27T17:44:49;9.45;;;7.90;;
57105;SDS011;62662;56.788;23.942;2022-09-27T17:47:20;12.45;;;7.80;;
57105;SDS011;62662;56.788;23.942;2022-09-27T17:50:07;9.07;;;7.65;;
57105;SDS011;62662;56.788;23.942;2022-09-27T17:52:56;8.30;;;6.90;;
57105;SDS011;62662;56.788;23.942;2022-09-27T17:55:25;10.57;;;7.47;;
57105;SDS011;62662;56.788;23.942;2022-09-27T17:58:08;8.45;;;7.25;;
57105;SDS011;62662;56.788;23.942;2022-09-27T18:00:39;9.25;;;7.20;;
57105;SDS011;62662;56.788;23.942;2022-09-27T18:03:21;9.82;;;6.90;;
57105;SDS011;62662;56.788;23.942;2022-09-27T18:05:51;12.35;;;7.47;;
57105;SDS011;62662;56.788;23.942;2022-09-27T18:08:21;12.18;;;7.47;;
57105;SDS011;62662;56.788;23.942;2022-09-27T18:10:51;10.15;;;7.00;;
57105;SDS011;62662;56.788;23.942;2022-09-27T18:13:24;9.77;;;7.35;;
57105;SDS011;62662;56.788;23.942;2022-09-27T18:15:55;9.88;;;7.15;;
57105;SDS011;62662;56.788;23.942;2022-09-27T18:18:26;10.57;;;7.72;;
57105;SDS011;62662;56.788;23.942;2022-09-27T18:21:00;10.57;;;7.65;;
57105;SDS011;62662;56.788;23.942;2022-09-27T18:23:31;10.98;;;6.93;;
57105;SDS011;62662;56.788;23.942;2022-09-27T18:26:04;8.52;;;6.75;;
57105;SDS011;62662;56.788;23.942;2022-09-27T18:28:41;13.45;;;7.57;;
57105;SDS011;62662;56.788;23.942;2022-09-27T18:31:20;9.60;;;6.72;;
57105;SDS011;62662;56.788;23.942;2022-09-27T18:33:49;7.75;;;6.75;;
57105;SDS011;62662;56.788;23.942;2022-09-27T18:36:24;7.78;;;6.93;;
57105;SDS011;62662;56.788;23.942;2022-09-27T18:38:54;7.57;;;6.78;;
57105;SDS011;62662;56.788;23.942;2022-09-27T18:41:29;7.97;;;7.10;;
57105;SDS011;62662;56.788;23.942;2022-09-27T18:44:02;7.63;;;6.93;;
57105;SDS011;62662;56.788;23.942;2022-09-27T18:46:40;10.13;;;7.65;;
57105;SDS011;62662;56.788;23.942;2022-09-27T18:49:10;10.75;;;6.95;;
57105;SDS011;62662;56.788;23.942;2022-09-27T18:51:38;11.82;;;7.18;;
57105;SDS011;62662;56.788;23.942;2022-09-27T18:54:14;8.82;;;6.97;;
57105;SDS011;62662;56.788;23.942;2022-09-27T18:56:47;11.73;;;6.22;;
57105;SDS011;62662;56.788;23.942;2022-09-27T18:59:15;9.25;;;7.60;;
57105;SDS011;62662;56.788;23.942;2022-09-27T19:01:45;11.10;;;6.95;;
57105;SDS011;62662;56.788;23.942;2022-09-27T19:04:13;7.47;;;6.65;;
57105;SDS011;62662;56.788;23.942;2022-09-27T19:09:18;9.02;;;6.20;;
57105;SDS011;62662;56.788;23.942;2022-09-27T19:11:49;9.48;;;6.68;;
57105;SDS011;62662;56.788;23.942;2022-09-27T19:14:49;7.75;;;6.30;;
57105;SDS011;62662;56.788;23.942;2022-09-27T19:17:18;7.68;;;6.18;;
57105;SDS011;62662;56.788;23.942;2022-09-27T19:19:47;9.30;;;6.35;;
57105;SDS011;62662;56.788;23.942;2022-09-27T19:22:15;9.95;;;6.22;;
57105;SDS011;62662;56.788;23.942;2022-09-27T19:24:42;7.88;;;6.65;;
57105;SDS011;62662;56.788;23.942;2022-09-27T19:27:09;7.03;;;6.28;;
57105;SDS011;62662;56.788;23.942;2022-09-27T19:29:39;9.30;;;6.57;;
57105;SDS011;62662;56.788;23.942;2022-09-27T19:32:07;7.60;;;5.50;;
57105;SDS011;62662;56.788;23.942;2022-09-27T19:34:34;11.77;;;6.50;;
57105;SDS011;62662;56.788;23.942;2022-09-27T19:37:01;6.90;;;6.13;;
57105;SDS011;62662;56.788;23.942;2022-09-27T19:39:29;7.13;;;6.00;;
57105;SDS011;62662;56.788;23.942;2022-09-27T19:41:56;9.75;;;5.88;;
57105;SDS011;62662;56.788;23.942;2022-09-27T19:44:23;6.55;;;5.70;;
57105;SDS011;62662;56.788;23.942;2022-09-27T19:46:51;6.75;;;5.90;;
57105;SDS011;62662;56.788;23.942;2022-09-27T19:49:18;6.20;;;5.60;;
57105;SDS011;62662;56.788;23.942;2022-09-27T19:51:45;9.52;;;6.32;;
57105;SDS011;62662;56.788;23.942;2022-09-27T19:54:13;8.02;;;5.95;;
57105;SDS011;62662;56.788;23.942;2022-09-27T19:56:40;8.63;;;6.38;;
57105;SDS011;62662;56.788;23.942;2022-09-27T19:59:08;6.97;;;5.75;;
57105;SDS011;62662;56.788;23.942;2022-09-27T20:01:38;9.40;;;6.90;;
57105;SDS011;62662;56.788;23.942;2022-09-27T20:04:09;7.97;;;6.07;;
57105;SDS011;62662;56.788;23.942;2022-09-27T20:06:40;11.57;;;6.60;;
57105;SDS011;62662;56.788;23.942;2022-09-27T20:09:07;9.75;;;6.95;;
57105;SDS011;62662;56.788;23.942;2022-09-27T20:11:35;8.95;;;6.50;;
57105;SDS011;62662;56.788;23.942;2022-09-27T20:14:02;9.77;;;6.90;;
57105;SDS011;62662;56.788;23.942;2022-09-27T20:16:29;10.35;;;6.95;;
57105;SDS011;62662;56.788;23.942;2022-09-27T20:18:57;8.95;;;6.97;;
57105;SDS011;62662;56.788;23.942;2022-09-27T20:21:27;9.25;;;6.38;;
57105;SDS011;62662;56.788;23.942;2022-09-27T20:23:58;11.20;;;7.28;;
57105;SDS011;62662;56.788;23.942;2022-09-27T20:26:28;13.70;;;7.50;;
57105;SDS011;62662;56.788;23.942;2022-09-27T20:28:57;8.93;;;6.85;;
57105;SDS011;62662;56.788;23.942;2022-09-27T20:31:26;9.45;;;6.57;;
57105;SDS011;62662;56.788;23.942;2022-09-27T20:33:55;6.63;;;5.95;;
57105;SDS011;62662;56.788;23.942;2022-09-27T20:36:27;8.77;;;6.32;;
57105;SDS011;62662;56.788;23.942;2022-09-27T20:38:58;9.88;;;7.03;;
57105;SDS011;62662;56.788;23.942;2022-09-27T20:41:30;9.25;;;5.95;;
57105;SDS011;62662;56.788;23.942;2022-09-27T20:44:03;9.73;;;6.22;;
57105;SDS011;62662;56.788;23.942;2022-09-27T20:46:32;8.32;;;5.78;;
57105;SDS011;62662;56.788;23.942;2022-09-27T20:49:01;7.43;;;5.95;;
57105;SDS011;62662;56.788;23.942;2022-09-27T20:51:31;6.88;;;5.97;;
57105;SDS011;62662;56.788;23.942;2022-09-27T20:54:00;8.25;;;6.40;;
57105;SDS011;62662;56.788;23.942;2022-09-27T20:56:29;7.13;;;5.60;;
57105;SDS011;62662;56.788;23.942;2022-09-27T20:58:59;6.43;;;5.63;;
57105;SDS011;62662;56.788;23.942;2022-09-27T21:01:29;9.18;;;6.57;;
57105;SDS011;62662;56.788;23.942;2022-09-27T21:03:58;7.22;;;6.07;;
57105;SDS011;62662;56.788;23.942;2022-09-27T21:06:27;10.60;;;5.25;;
57105;SDS011;62662;56.788;23.942;2022-09-27T21:08:57;7.43;;;5.35;;
57105;SDS011;62662;56.788;23.942;2022-09-27T21:11:25;7.40;;;5.45;;
57105;SDS011;62662;56.788;23.942;2022-09-27T21:13:52;6.50;;;5.20;;
57105;SDS011;62662;56.788;23.942;2022-09-27T21:16:20;7.05;;;5.47;;
57105;SDS011;62662;56.788;23.942;2022-09-27T21:18:51;8.88;;;5.18;;
57105;SDS011;62662;56.788;23.942;2022-09-27T21:21:20;6.30;;;5.25;;
57105;SDS011;62662;56.788;23.942;2022-09-27T21:23:53;10.13;;;5.45;;
57105;SDS011;62662;56.788;23.942;2022-09-27T21:26:22;7.93;;;4.88;;
57105;SDS011;62662;56.788;23.942;2022-09-27T21:28:50;7.10;;;5.55;;
57105;SDS011;62662;56.788;23.942;2022-09-27T21:31:20;8.07;;;5.35;;
57105;SDS011;62662;56.788;23.942;2022-09-27T21:33:56;6.30;;;5.10;;
57105;SDS011;62662;56.788;23.942;2022-09-27T21:36:25;7.72;;;5.38;;
57105;SDS011;62662;56.788;23.942;2022-09-27T21:38:57;8.43;;;5.30;;
57105;SDS011;62662;56.788;23.942;2022-09-27T21:41:24;8.10;;;5.60;;
57105;SDS011;62662;56.788;23.942;2022-09-27T21:43:52;14.70;;;5.78;;
57105;SDS011;62662;56.788;23.942;2022-09-27T21:46:21;8.57;;;5.22;;
57105;SDS011;62662;56.788;23.942;2022-09-27T21:48:56;7.13;;;4.88;;
57105;SDS011;62662;56.788;23.942;2022-09-27T21:51:26;6.80;;;5.35;;
57105;SDS011;62662;56.788;23.942;2022-09-27T21:53:56;9.07;;;4.88;;